Time;durP1;ratioP1;P1;durP2;ratioP2;P2;SDS_P1;SDS_P2;PMS_P1;PMS_P2;Temp;Humidity;BMP_temperature;BMP_pressure;BME280_temperature;BME280_humidity;BME280_pressure;Samples;Min_cycle;Max_cycle;Signal;HPM_P1;HPM_P2
2023/09/19 00:00:46;;;;;;;5.32;1.10;;;;;;;25.71;29.85;101099.09;4945168;29;20655;-74
2023/09/19 00:03:15;;;;;;;7.70;1.83;;;;;;;25.68;30.21;101089.44;4946735;28;20078;-75
2023/09/19 00:05:45;;;;;;;9.00;1.55;;;;;;;25.64;29.61;101094.88;4947851;28;20055;-76
2023/09/19 00:08:15;;;;;;;5.57;1.38;;;;;;;25.60;30.03;101090.56;4940327;28;20058;-75
2023/09/19 00:10:45;;;;;;;10.35;1.30;;;;;;;25.57;29.88;101091.53;4931721;28;20154;-74
2023/09/19 00:13:14;;;;;;;6.57;1.55;;;;;;;25.49;29.57;101082.91;4937767;28;20146;-75
2023/09/19 00:15:48;;;;;;;4.50;1.30;;;;;;;25.38;30.45;101090.25;4947873;28;20054;-79
2023/09/19 00:18:17;;;;;;;7.25;1.45;;;;;;;25.27;29.77;101099.38;4942418;28;20548;-74
2023/09/19 00:20:49;;;;;;;7.63;1.58;;;;;;;25.19;29.66;101101.34;4949006;28;20059;-77
2023/09/19 00:23:17;;;;;;;;;;;;;;;25.12;30.35;101110.31;4950177;28;20126;-75
2023/09/19 00:25:47;;;;;;;6.30;1.45;;;;;;;25.08;30.66;101109.56;4944578;28;20016;-75
2023/09/19 00:28:28;;;;;;;5.93;1.48;;;;;;;24.98;30.49;101109.81;4942309;28;20138;-73
2023/09/19 00:30:56;;;;;;;4.63;1.40;;;;;;;24.91;30.59;101108.22;4934926;28;20184;-76
2023/09/19 00:33:25;;;;;;;6.95;1.45;;;;;;;24.78;29.69;101105.84;4933356;28;20056;-76
2023/09/19 00:35:55;;;;;;;5.32;1.52;;;;;;;24.66;30.53;101104.38;4943306;28;20063;-78
2023/09/19 00:38:28;;;;;;;6.90;1.50;;;;;;;24.58;30.53;101092.22;4944601;28;20484;-73
2023/09/19 00:40:59;;;;;;;4.60;1.30;;;;;;;24.48;30.56;101093.34;4940642;28;20152;-75
2023/09/19 00:43:29;;;;;;;6.30;1.25;;;;;;;24.39;30.50;101095.25;4941886;28;20059;-77
2023/09/19 00:46:00;;;;;;;10.43;1.80;;;;;;;24.32;31.61;101091.00;4942535;28;20058;-74
2023/09/19 00:48:29;;;;;;;10.25;1.98;;;;;;;24.25;31.84;101086.75;4943168;28;20047;-76
2023/09/19 00:51:01;;;;;;;8.25;1.95;;;;;;;24.15;30.34;101085.25;4943291;28;20568;-76
2023/09/19 00:53:33;;;;;;;4.80;1.80;;;;;;;23.99;30.84;101082.91;4948674;28;20501;-74
2023/09/19 00:56:11;;;;;;;6.18;1.30;;;;;;;23.90;30.73;101080.47;4946311;28;20055;-74
2023/09/19 00:58:40;;;;;;;5.53;1.52;;;;;;;23.85;30.70;101082.34;4944299;28;20513;-76
2023/09/19 01:01:09;;;;;;;6.32;1.95;;;;;;;23.78;30.13;101073.66;4948392;28;20059;-75
2023/09/19 01:03:40;;;;;;;6.90;1.40;;;;;;;23.69;31.24;101072.94;4940235;28;20545;-73
2023/09/19 01:06:09;;;;;;;8.20;1.50;;;;;;;23.60;31.32;101074.84;4937369;28;20122;-76
2023/09/19 01:08:37;;;;;;;6.38;1.40;;;;;;;;;;4939009;28;20047;-75
2023/09/19 01:11:28;;;;;;;6.88;2.33;;;;;;;23.41;30.60;101070.84;4942288;28;20059;-74
2023/09/19 01:14:05;;;;;;;8.27;1.90;;;;;;;23.30;31.04;101078.94;4948782;28;20051;-74
2023/09/19 01:16:43;;;;;;;5.10;1.42;;;;;;;23.17;30.94;101075.63;4945864;28;20536;-75
2023/09/19 01:19:55;;;;;;;6.13;1.48;;;;;;;23.05;32.05;101075.88;4951804;28;20151;-74
2023/09/19 01:22:34;;;;;;;3.20;1.05;;;;;;;22.93;31.07;101076.00;4940366;28;20051;-76
2023/09/19 01:25:33;;;;;;;9.20;2.28;;;;;;;22.82;31.23;101091.19;4945694;28;20404;-74
2023/09/19 01:28:23;;;;;;;7.05;1.52;;;;;;;22.68;31.08;101086.97;4947900;28;20054;-75
2023/09/19 01:31:00;;;;;;;5.63;1.20;;;;;;;22.56;32.07;101089.78;4941501;28;20493;-75
2023/09/19 01:33:34;;;;;;;6.10;1.60;;;;;;;22.48;32.39;101089.91;4945813;28;20639;-74
2023/09/19 01:36:03;;;;;;;8.20;1.40;;;;;;;22.35;32.11;101097.09;4946198;28;20051;-75
2023/09/19 01:38:32;;;;;;;10.93;1.27;;;;;;;22.24;32.04;101090.25;4947326;28;20600;-76
2023/09/19 01:41:09;;;;;;;5.80;1.17;;;;;;;22.11;32.29;101089.53;4943379;28;20048;-77
2023/09/19 01:43:42;;;;;;;7.25;2.08;;;;;;;22.00;32.14;101080.88;4947202;28;20103;-76
2023/09/19 01:46:21;;;;;;;5.72;1.60;;;;;;;21.83;32.47;101074.06;4951106;28;20138;-76
2023/09/19 01:49:03;;;;;;;3.30;1.08;;;;;;;21.74;32.94;101075.03;4948091;28;20091;-77
2023/09/19 01:51:38;;;;;;;7.22;1.63;;;;;;;21.66;33.07;101083.91;4947223;28;20477;-77
2023/09/19 01:54:13;;;;;;;5.78;2.10;;;;;;;21.59;32.75;101079.59;4948514;28;20138;-77
2023/09/19 01:56:50;;;;;;;7.15;1.58;;;;;;;21.48;33.20;101085.81;4950507;28;20645;-73
2023/09/19 01:59:27;;;;;;;8.05;1.52;;;;;;;21.42;33.32;101074.53;4947865;28;20058;-75
2023/09/19 02:01:57;;;;;;;7.10;1.25;;;;;;;21.28;33.08;101085.13;4942668;28;20051;-74
2023/09/19 02:04:26;;;;;;;5.15;1.25;;;;;;;21.17;33.42;101076.47;4946450;28;20545;-74
2023/09/19 02:06:55;;;;;;;7.35;1.77;;;;;;;21.05;34.14;101073.06;4947769;28;20053;-76
2023/09/19 02:09:27;;;;;;;4.07;1.42;;;;;;;20.93;33.96;101074.00;4946155;28;20154;-72
2023/09/19 02:11:56;;;;;;;6.85;1.10;;;;;;;20.85;34.68;101075.00;4948318;28;20059;-73
2023/09/19 02:14:27;;;;;;;6.60;1.48;;;;;;;20.76;34.46;101082.94;4942619;28;20051;-71
2023/09/19 02:16:57;;;;;;;4.80;1.40;;;;;;;20.68;34.70;101094.41;4948597;28;20472;-72
2023/09/19 02:19:33;;;;;;;5.60;1.40;;;;;;;20.60;35.52;101095.31;4944568;28;20187;-74
2023/09/19 02:22:03;;;;;;;8.98;2.33;;;;;;;20.49;35.57;101090.97;4945479;28;20087;-73
2023/09/19 02:24:31;;;;;;;6.45;1.95;;;;;;;20.43;35.79;101095.38;4949304;28;20106;-73
2023/09/19 02:27:03;;;;;;;9.82;2.50;;;;;;;20.36;35.86;101093.66;4946062;28;20043;-74
2023/09/19 02:29:32;;;;;;;7.22;2.45;;;;;;;20.28;36.26;101094.59;4944030;28;20078;-72
2023/09/19 02:32:03;;;;;;;9.55;3.00;;;;;;;20.21;36.53;101098.13;4943011;28;20054;-75
2023/09/19 02:34:32;;;;;;;10.07;3.22;;;;;;;20.16;36.48;101097.28;4946885;28;20062;-73
2023/09/19 02:37:00;;;;;;;7.35;2.85;;;;;;;20.06;36.59;101092.94;4946305;28;20051;-74
2023/09/19 02:39:32;;;;;;;5.90;1.67;;;;;;;19.99;36.62;101096.47;4948049;28;20055;-73
2023/09/19 02:42:00;;;;;;;5.72;1.35;;;;;;;19.90;36.98;101102.63;4948767;28;20055;-76
2023/09/19 02:44:28;;;;;;;6.07;1.08;;;;;;;19.82;37.37;101105.28;4951210;28;20047;-74
2023/09/19 02:46:57;;;;;;;3.92;0.98;;;;;;;19.75;36.99;101114.06;4951704;28;20445;-73
2023/09/19 02:49:28;;;;;;;5.93;1.15;;;;;;;19.67;37.18;101118.41;4951333;28;20133;-75
2023/09/19 02:51:58;;;;;;;3.47;1.17;;;;;;;19.58;37.56;101119.28;4947338;28;20099;-74
2023/09/19 02:54:27;;;;;;;5.00;1.08;;;;;;;19.48;37.50;101124.59;4947563;28;20069;-73
2023/09/19 02:56:56;;;;;;;5.30;1.42;;;;;;;19.43;37.92;101138.59;4944303;28;20485;-73
2023/09/19 02:59:25;;;;;;;3.03;0.93;;;;;;;19.32;37.34;101129.84;4953076;28;20052;-75
2023/09/19 03:01:55;;;;;;;4.53;0.82;;;;;;;19.25;37.88;101146.47;4952582;28;20584;-76
2023/09/19 03:04:23;;;;;;;4.50;0.85;;;;;;;19.19;38.03;101149.06;4950816;28;20055;-75
2023/09/19 03:06:58;;;;;;;3.42;1.30;;;;;;;19.13;38.08;101149.09;4946941;28;20055;-76
2023/09/19 03:09:27;;;;;;;4.60;1.17;;;;;;;19.09;38.21;101152.59;4952516;28;20059;-78
2023/09/19 03:11:57;;;;;;;7.22;1.27;;;;;;;19.03;37.90;101149.09;4943175;28;20055;-74
2023/09/19 03:14:30;;;;;;;10.20;1.45;;;;;;;18.97;38.43;101151.69;4949028;28;20058;-78
2023/09/19 03:16:59;;;;;;;6.80;1.30;;;;;;;18.91;38.60;101150.81;4949467;28;20079;-76
2023/09/19 03:19:28;;;;;;;3.75;0.80;;;;;;;18.86;39.03;101150.81;4950263;28;20160;-78
2023/09/19 03:22:09;;;;;;;9.15;1.45;;;;;;;18.82;38.98;101155.16;4952033;28;20057;-75
2023/09/19 03:24:38;;;;;;;4.43;0.68;;;;;;;18.75;39.18;101153.34;4950947;28;20501;-76
2023/09/19 03:27:08;;;;;;;5.57;1.23;;;;;;;18.78;38.78;101169.16;4951610;28;20851;-77
2023/09/19 03:29:37;;;;;;;6.18;1.15;;;;;;;18.72;39.27;101165.59;4948814;28;20582;-75
2023/09/19 03:32:10;;;;;;;3.97;1.00;;;;;;;18.67;39.06;101169.94;4950064;28;20651;-73
2023/09/19 03:34:42;;;;;;;10.43;1.40;;;;;;;18.61;39.17;101171.66;4946227;28;20065;-74
2023/09/19 03:37:12;;;;;;;6.80;1.33;;;;;;;18.56;39.81;101173.41;4944622;28;20051;-75
2023/09/19 03:39:41;;;;;;;5.85;1.67;;;;;;;18.52;39.74;101171.66;4950152;28;20122;-75
2023/09/19 03:42:10;;;;;;;4.82;0.98;;;;;;;18.45;39.61;101175.13;4950402;28;20068;-73
2023/09/19 03:44:38;;;;;;;10.90;1.58;;;;;;;18.41;39.41;101183.81;4948276;28;20062;-74
2023/09/19 03:47:07;;;;;;;4.75;1.25;;;;;;;18.37;39.98;101174.19;4951470;28;20063;-77
2023/09/19 03:49:36;;;;;;;5.25;0.98;;;;;;;18.34;39.61;101169.81;4949810;28;20099;-75
2023/09/19 03:52:06;;;;;;;2.78;0.80;;;;;;;18.29;40.48;101171.56;4940624;28;20055;-73
2023/09/19 03:54:36;;;;;;;4.13;0.90;;;;;;;18.21;40.09;101161.06;4943182;28;20062;-71
2023/09/19 03:57:15;;;;;;;1.80;1.00;;;;;;;18.17;40.11;101167.13;4942871;28;20055;-73
2023/09/19 03:59:48;;;;;;;8.07;1.00;;;;;;;18.10;39.93;101165.38;4944055;28;20043;-73
2023/09/19 04:02:22;;;;;;;5.88;0.75;;;;;;;18.05;40.00;101174.94;4936318;28;20047;-76
2023/09/19 04:04:50;;;;;;;4.75;1.05;;;;;;;18.00;40.77;101172.31;4946175;28;20079;-72
2023/09/19 04:07:22;;;;;;;3.10;0.82;;;;;;;17.98;40.12;101178.38;4950146;28;20055;-73
2023/09/19 04:09:53;;;;;;;4.63;0.93;;;;;;;17.93;40.54;101180.09;4949302;28;20082;-73
2023/09/19 04:12:22;;;;;;;3.90;0.55;;;;;;;17.86;40.31;101176.56;4936061;28;20044;-73
2023/09/19 04:14:51;;;;;;;2.70;0.73;;;;;;;17.80;40.44;101182.63;4938800;28;20466;-73
2023/09/19 04:17:20;;;;;;;4.07;1.10;;;;;;;17.72;40.42;101179.06;4946956;28;20115;-73
2023/09/19 04:19:50;;;;;;;3.70;1.42;;;;;;;17.70;40.63;101177.28;4947100;28;20138;-74
2023/09/19 04:22:19;;;;;;;4.93;1.27;;;;;;;17.63;41.11;101176.38;4937318;28;20046;-73
2023/09/19 04:24:47;;;;;;;5.60;0.90;;;;;;;17.60;40.58;101176.34;4948619;28;20919;-73
2023/09/19 04:27:18;;;;;;;5.38;0.68;;;;;;;17.56;40.84;101171.97;4941026;28;20044;-73
2023/09/19 04:29:49;;;;;;;1.85;0.52;;;;;;;17.53;41.42;101179.81;4940256;28;20147;-74
2023/09/19 04:32:19;;;;;;;5.53;0.98;;;;;;;17.48;40.85;101171.91;4944166;28;20051;-74
2023/09/19 04:34:49;;;;;;;6.35;1.02;;;;;;;17.45;40.62;101171.88;4944650;28;20047;-73
2023/09/19 04:37:18;;;;;;;3.55;0.93;;;;;;;17.36;41.61;101167.47;4959616;28;20136;-72
2023/09/19 04:39:47;;;;;;;5.32;0.98;;;;;;;17.35;40.74;101170.06;4946803;28;20067;-73
2023/09/19 04:42:21;;;;;;;6.57;0.80;;;;;;;17.33;40.78;101175.28;4946194;28;20047;-76
2023/09/19 04:44:54;;;;;;;4.15;0.60;;;;;;;17.28;41.01;101169.13;4944558;28;20110;-74
2023/09/19 04:47:24;;;;;;;1.48;0.40;;;;;;;17.22;41.28;101170.81;4948231;28;20043;-72
2023/09/19 04:50:04;;;;;;;;;;;;;;;;;;;;;
2023/09/19 04:52:33;;;;;;;5.63;1.02;;;;;;;17.15;41.25;101172.50;4951218;28;20456;-73
2023/09/19 04:55:01;;;;;;;3.15;0.70;;;;;;;17.13;40.86;101171.59;4949022;28;20133;-73
2023/09/19 04:57:32;;;;;;;5.05;1.15;;;;;;;17.08;41.32;101173.31;4947039;28;20048;-74
2023/09/19 05:00:06;;;;;;;3.30;1.15;;;;;;;17.01;41.18;101174.97;4947413;28;20095;-74
2023/09/19 05:02:35;;;;;;;3.40;0.85;;;;;;;16.94;41.40;101175.78;4951934;28;20058;-73
2023/09/19 05:05:04;;;;;;;4.35;0.73;;;;;;;16.88;41.73;101174.00;4945435;28;20513;-74
2023/09/19 05:07:34;;;;;;;3.17;0.60;;;;;;;16.83;41.70;101178.28;4948964;28;20043;-73
2023/09/19 05:10:05;;;;;;;3.75;0.85;;;;;;;16.80;41.64;101180.88;4947668;28;20119;-74
2023/09/19 05:12:36;;;;;;;5.07;0.95;;;;;;;16.77;42.32;101183.44;4942840;28;20068;-74
2023/09/19 05:15:06;;;;;;;3.08;0.63;;;;;;;16.73;41.67;101189.47;4946687;28;20473;-76
2023/09/19 05:17:40;;;;;;;4.65;0.73;;;;;;;16.67;42.00;101194.63;4947130;28;20154;-74
2023/09/19 05:20:13;;;;;;;4.05;0.77;;;;;;;16.62;42.64;101188.47;4948439;28;20497;-75
2023/09/19 05:22:42;;;;;;;4.20;0.52;;;;;;;16.59;42.34;101196.28;4942995;28;20058;-74
2023/09/19 05:25:15;;;;;;;4.20;1.00;;;;;;;16.53;42.68;101187.50;4946530;28;20099;-72
2023/09/19 05:27:46;;;;;;;5.75;0.93;;;;;;;16.50;42.99;101195.31;4947305;28;20047;-74
2023/09/19 05:30:15;;;;;;;4.07;1.10;;;;;;;16.47;43.54;101204.81;4945920;28;20520;-75
2023/09/19 05:32:44;;;;;;;2.70;0.70;;;;;;;16.42;43.39;101194.31;4946212;28;20054;-76
2023/09/19 05:35:13;;;;;;;5.25;0.65;;;;;;;16.38;43.83;101197.78;4944716;28;20066;-74
2023/09/19 05:37:41;;;;;;;2.33;0.65;;;;;;;16.35;43.87;101192.50;4949274;28;20039;-73
2023/09/19 05:40:14;;;;;;;3.50;0.68;;;;;;;16.29;44.43;101192.44;4944034;28;20039;-74
2023/09/19 05:42:43;;;;;;;3.22;0.50;;;;;;;16.25;43.78;101190.63;4945455;28;20074;-76
2023/09/19 05:45:18;;;;;;;1.38;0.60;;;;;;;16.20;44.41;101189.69;4945682;28;20489;-75
2023/09/19 05:47:47;;;;;;;4.57;0.43;;;;;;;16.17;43.92;101197.47;4945898;28;20059;-75
2023/09/19 05:50:19;;;;;;;3.72;0.80;;;;;;;16.12;44.20;101193.06;4947282;28;20134;-75
2023/09/19 05:52:55;;;;;;;3.35;0.70;;;;;;;16.09;44.80;101198.25;4948321;28;20154;-77
2023/09/19 05:55:28;;;;;;;3.80;1.13;;;;;;;16.06;45.00;101206.03;4946991;28;20058;-76
2023/09/19 05:57:57;;;;;;;8.60;0.73;;;;;;;16.04;45.09;101197.31;4944089;28;20047;-76
2023/09/19 06:00:29;;;;;;;2.00;0.77;;;;;;;16.02;44.62;101199.03;4945858;28;20910;-75
2023/09/19 06:02:59;;;;;;;6.22;1.05;;;;;;;15.99;45.39;101198.09;4947371;28;20479;-75
2023/09/19 06:05:30;;;;;;;1.77;0.50;;;;;;;15.95;44.96;101205.00;4945792;28;20055;-75
2023/09/19 06:08:00;;;;;;;3.58;0.70;;;;;;;15.94;45.72;101208.47;4947550;28;20066;-75
2023/09/19 06:10:29;;;;;;;4.70;0.93;;;;;;;15.91;45.36;101201.47;4947910;28;20618;-75
2023/09/19 06:12:57;;;;;;;3.38;0.98;;;;;;;15.88;45.46;101203.16;4944244;28;20065;-73
2023/09/19 06:15:28;;;;;;;11.75;0.93;;;;;;;15.86;45.33;101207.50;4946936;28;20138;-75
2023/09/19 06:17:59;;;;;;;5.22;1.02;;;;;;;15.85;46.34;101209.22;4951880;28;20051;-74
2023/09/19 06:20:28;;;;;;;7.65;1.00;;;;;;;15.82;45.95;101201.31;4951489;28;20138;-75
2023/09/19 06:22:56;;;;;;;6.10;1.08;;;;;;;15.79;45.90;101196.06;4946504;28;20055;-74
2023/09/19 06:25:25;;;;;;;2.78;0.82;;;;;;;15.77;45.55;101196.91;4945816;28;20051;-75
2023/09/19 06:27:56;;;;;;;3.60;0.85;;;;;;;15.69;46.14;101192.41;4950705;28;20047;-75
2023/09/19 06:30:29;;;;;;;3.83;0.80;;;;;;;15.66;45.41;101205.41;4948043;28;20058;-74
2023/09/19 06:33:00;;;;;;;;;;;;;;;15.62;45.78;101206.22;4955434;28;20059;-75
2023/09/19 06:35:30;;;;;;;3.72;0.70;;;;;;;15.58;46.85;101207.03;4949774;28;19933;-74
2023/09/19 06:37:59;;;;;;;2.72;0.73;;;;;;;15.55;46.24;101199.13;4945980;28;20058;-74
2023/09/19 06:40:28;;;;;;;1.48;0.50;;;;;;;15.47;46.84;101201.63;4950276;28;20138;-75
2023/09/19 06:42:56;;;;;;;2.92;0.73;;;;;;;15.42;46.88;101212.84;4953466;28;20046;-74
2023/09/19 06:45:26;;;;;;;3.95;0.93;;;;;;;15.39;46.49;101205.84;4951137;28;20082;-73
2023/09/19 06:47:57;;;;;;;2.78;1.08;;;;;;;15.37;46.85;101199.72;4948938;28;20465;-74
2023/09/19 06:50:30;;;;;;;1.73;0.47;;;;;;;15.38;46.99;101209.28;4945746;28;20055;-74
2023/09/19 06:53:00;;;;;;;4.57;0.85;;;;;;;15.35;48.40;101209.25;4939047;28;20054;-75
2023/09/19 06:55:31;;;;;;;0.80;0.40;;;;;;;15.35;48.12;101213.59;4951280;28;20056;-73
2023/09/19 06:58:00;;;;;;;3.70;0.50;;;;;;;15.33;49.74;101210.09;4945549;28;20051;-73
2023/09/19 07:00:32;;;;;;;3.70;0.95;;;;;;;15.30;49.39;101221.31;4949280;28;20515;-75
2023/09/19 07:03:03;;;;;;;3.47;0.65;;;;;;;15.26;48.72;101215.19;4944887;28;20058;-73
2023/09/19 07:05:33;;;;;;;0.93;0.50;;;;;;;15.02;49.36;101213.00;4948430;28;20565;-73
2023/09/19 07:08:05;;;;;;;5.30;1.42;;;;;;;14.93;48.78;101207.59;4948622;28;20059;-74
2023/09/19 07:10:35;;;;;;;4.05;0.75;;;;;;;14.90;49.43;101222.31;4947546;28;20047;-74
2023/09/19 07:13:06;;;;;;;3.10;0.80;;;;;;;14.88;48.91;101233.56;4951726;28;20053;-74
2023/09/19 07:15:35;;;;;;;6.32;0.93;;;;;;;14.90;48.88;101224.94;4948428;28;20047;-75
2023/09/19 07:18:08;;;;;;;6.43;0.90;;;;;;;14.88;49.16;101233.56;4951248;28;20139;-75
2023/09/19 07:20:37;;;;;;;3.83;1.17;;;;;;;14.88;49.52;101238.78;4948212;28;20481;-75
2023/09/19 07:23:06;;;;;;;3.50;0.55;;;;;;;14.81;49.68;101230.84;4949890;28;20485;-73
2023/09/19 07:25:34;;;;;;;4.47;0.60;;;;;;;14.71;50.50;101240.19;4955536;28;20059;-74
2023/09/19 07:28:03;;;;;;;1.45;0.47;;;;;;;14.64;50.11;101236.59;4950614;28;20063;-74
2023/09/19 07:30:32;;;;;;;2.83;0.95;;;;;;;14.62;49.83;101245.22;4951200;28;20051;-76
2023/09/19 07:33:02;;;;;;;2.97;0.60;;;;;;;14.61;50.26;101240.84;4949080;28;20062;-74
2023/09/19 07:35:32;;;;;;;3.78;0.52;;;;;;;14.58;50.44;101253.81;4945822;28;20051;-74
2023/09/19 07:38:02;;;;;;;3.67;0.63;;;;;;;14.59;50.35;101264.28;4946211;28;20109;-74
2023/09/19 07:40:31;;;;;;;4.85;0.90;;;;;;;14.53;50.16;101255.41;4947125;28;20102;-74
2023/09/19 07:43:01;;;;;;;4.68;0.95;;;;;;;14.52;50.57;101258.84;4953999;28;20417;-73
2023/09/19 07:45:29;;;;;;;3.17;0.50;;;;;;;14.49;50.61;101261.38;4946521;28;20532;-75
2023/09/19 07:47:58;;;;;;;4.65;1.08;;;;;;;14.40;51.39;101257.72;4946157;28;20079;-75
2023/09/19 07:50:27;;;;;;;6.57;0.95;;;;;;;14.37;51.87;101255.06;4950030;28;20082;-74
2023/09/19 07:52:58;;;;;;;4.07;0.88;;;;;;;14.34;51.62;101255.00;4949642;28;20577;-75
2023/09/19 07:55:27;;;;;;;7.07;0.70;;;;;;;14.28;51.50;101256.59;4948232;28;20051;-75
2023/09/19 07:57:55;;;;;;;4.18;0.68;;;;;;;14.22;52.08;101250.41;4945750;28;20120;-74
2023/09/19 08:00:24;;;;;;;2.70;0.70;;;;;;;14.17;51.93;101251.13;4950050;28;20059;-74
2023/09/19 08:02:53;;;;;;;1.70;0.63;;;;;;;14.17;52.64;101251.13;4948709;28;20050;-75
2023/09/19 08:05:22;;;;;;;5.25;0.75;;;;;;;14.11;51.83;101238.88;4949322;28;20051;-73
2023/09/19 08:07:51;;;;;;;4.20;0.80;;;;;;;14.12;52.46;101252.75;4947819;28;20126;-73
2023/09/19 08:10:21;;;;;;;3.03;0.77;;;;;;;14.12;52.35;101257.97;4949839;28;20047;-75
2023/09/19 08:12:56;;;;;;;5.13;0.80;;;;;;;14.13;52.23;101257.13;4947317;28;20055;-73
2023/09/19 08:15:25;;;;;;;5.63;1.17;;;;;;;14.11;52.89;101256.19;4947788;28;20186;-76
2023/09/19 08:17:54;;;;;;;1.50;0.50;;;;;;;14.10;53.61;101254.44;4944819;28;20110;-74
2023/09/19 08:20:22;;;;;;;5.30;0.60;;;;;;;14.12;53.42;101257.97;4946669;28;20058;-73
2023/09/19 08:22:54;;;;;;;2.63;0.47;;;;;;;14.08;52.32;101250.94;4950050;28;20051;-72
2023/09/19 08:25:32;;;;;;;2.70;0.75;;;;;;;14.07;52.60;101249.19;4945697;28;20058;-74
2023/09/19 08:28:05;;;;;;;3.58;0.88;;;;;;;14.05;52.84;101262.16;4948639;28;20051;-74
2023/09/19 08:30:34;;;;;;;3.85;0.70;;;;;;;14.03;53.86;101256.91;4940614;28;20057;-73
2023/09/19 08:33:04;;;;;;;3.42;1.15;;;;;;;14.01;55.05;101258.59;4949282;28;20086;-74
2023/09/19 08:35:33;;;;;;;3.22;0.60;;;;;;;13.97;54.57;101255.88;4949016;28;20047;-73
2023/09/19 08:38:03;;;;;;;6.43;1.05;;;;;;;13.93;53.29;101260.16;4951905;28;20529;-73
2023/09/19 08:40:34;;;;;;;1.85;0.40;;;;;;;13.92;54.82;101258.38;4948338;28;20134;-74
2023/09/19 08:43:03;;;;;;;4.47;0.75;;;;;;;13.94;55.44;101256.69;4949588;28;20083;-74
2023/09/19 08:45:33;;;;;;;3.88;0.77;;;;;;;13.93;54.53;101257.53;4946350;28;20059;-74
2023/09/19 08:48:15;;;;;;;4.50;0.73;;;;;;;13.95;53.58;101260.16;4948086;28;20047;-74
2023/09/19 08:50:50;;;;;;;4.10;0.67;;;;;;;13.94;53.89;101263.63;4947456;28;20046;-74
2023/09/19 08:53:27;;;;;;;4.07;1.00;;;;;;;13.94;53.27;101258.41;4947304;28;20369;-72
2023/09/19 08:55:57;;;;;;;2.45;0.40;;;;;;;13.87;54.61;101256.50;4948862;28;20057;-73
2023/09/19 08:58:35;;;;;;;3.15;0.63;;;;;;;13.83;55.35;101268.56;4949234;28;20293;-74
2023/09/19 09:01:06;;;;;;;2.80;0.60;;;;;;;13.85;54.52;101273.81;4944369;28;20053;-75
2023/09/19 09:03:36;;;;;;;2.57;0.80;;;;;;;13.86;54.21;101275.53;4948201;28;20110;-73
2023/09/19 09:06:05;;;;;;;5.13;0.95;;;;;;;13.86;55.07;101279.06;4953473;28;20304;-74
2023/09/19 09:08:36;;;;;;;2.60;0.63;;;;;;;13.81;54.63;101273.75;4946339;28;20406;-75
2023/09/19 09:11:07;;;;;;;5.88;0.63;;;;;;;13.82;54.16;101279.81;4945731;28;20489;-74
2023/09/19 09:13:53;;;;;;;4.40;0.70;;;;;;;13.80;54.01;101281.50;4950481;28;20111;-75
2023/09/19 09:16:25;;;;;;;3.55;0.80;;;;;;;13.81;54.08;101278.94;4952822;28;20054;-75
2023/09/19 09:18:54;;;;;;;5.43;0.82;;;;;;;13.79;55.51;101284.94;4947503;28;20993;-75
2023/09/19 09:21:23;;;;;;;1.98;0.52;;;;;;;13.79;54.94;101285.81;4943640;28;20138;-75
2023/09/19 09:23:53;;;;;;;2.38;0.52;;;;;;;13.79;55.13;101280.63;4943160;28;20058;-74
2023/09/19 09:26:44;;;;;;;3.05;0.50;;;;;;;13.80;54.93;101290.16;4951636;28;20043;-74
2023/09/19 09:29:13;;;;;;;8.13;1.05;;;;;;;13.79;54.67;101293.63;4946302;28;20083;-75
2023/09/19 09:31:42;;;;;;;2.40;0.73;;;;;;;13.77;54.84;101291.84;4947997;28;20055;-74
2023/09/19 09:34:13;;;;;;;8.80;1.05;;;;;;;13.71;55.20;101296.88;4946844;28;20058;-74
2023/09/19 09:36:43;;;;;;;3.40;0.60;;;;;;;13.70;55.55;101302.91;4946900;28;20497;-74
2023/09/19 09:39:24;;;;;;;3.08;0.63;;;;;;;13.66;55.60;101301.09;4947574;28;20524;-74
2023/09/19 09:41:54;;;;;;;6.85;1.05;;;;;;;13.64;55.24;101302.75;4947621;28;20055;-74
2023/09/19 09:44:23;;;;;;;4.40;0.70;;;;;;;13.64;55.43;101310.56;4952176;28;20043;-75
2023/09/19 09:47:27;;;;;;;7.70;0.60;;;;;;;13.64;55.43;101300.16;4946838;28;20147;-75
2023/09/19 09:49:54;;;;;;;4.78;0.77;;;;;;;13.61;55.37;101307.03;4947838;28;20058;-74
2023/09/19 09:52:24;;;;;;;7.10;1.20;;;;;;;13.59;55.75;101308.72;4947533;28;20051;-74
2023/09/19 09:55:05;;;;;;;4.97;0.63;;;;;;;13.55;57.69;101317.25;4952289;28;20051;-74
2023/09/19 09:57:36;;;;;;;4.57;0.75;;;;;;;13.53;56.69;101318.94;4948912;28;20133;-75
2023/09/19 10:00:20;;;;;;;3.20;0.50;;;;;;;13.49;56.85;101319.72;4951243;28;20104;-75
2023/09/19 10:02:48;;;;;;;4.03;0.75;;;;;;;13.41;57.65;101308.22;4949286;28;20059;-74
2023/09/19 10:05:32;;;;;;;4.40;0.65;;;;;;;13.41;56.73;101322.09;4950662;28;20405;-76
2023/09/19 10:08:18;;;;;;;3.60;0.60;;;;;;;13.40;56.40;101306.47;4951623;28;20516;-74
2023/09/19 10:10:53;;;;;;;2.47;0.70;;;;;;;13.42;55.95;101307.38;4955489;28;20048;-73
2023/09/19 10:13:27;;;;;;;3.58;0.63;;;;;;;13.41;56.17;101303.91;4948129;28;20431;-75
2023/09/19 10:15:58;;;;;;;3.13;0.95;;;;;;;13.46;56.97;101309.22;4943585;28;20054;-74
2023/09/19 10:18:27;;;;;;;3.53;0.90;;;;;;;13.46;55.31;101306.63;4949075;28;20050;-74
2023/09/19 10:20:57;;;;;;;4.72;0.73;;;;;;;13.45;53.13;101293.59;4942082;28;20129;-75
2023/09/19 10:23:30;;;;;;;5.32;0.70;;;;;;;13.52;52.20;101301.59;4949723;28;20067;-75
2023/09/19 10:25:59;;;;;;;;;;;;;;;13.57;51.08;101314.72;4943855;28;20047;-72
2023/09/19 10:28:32;;;;;;;3.20;0.40;;;;;;;13.62;50.64;101313.09;4949254;28;19926;-75
2023/09/19 10:31:02;;;;;;;2.33;0.52;;;;;;;13.65;53.10;101313.19;4941440;28;20055;-74
2023/09/19 10:33:41;;;;;;;4.15;0.82;;;;;;;13.66;51.44;101311.47;4946345;28;20053;-75
2023/09/19 10:36:12;;;;;;;3.72;0.47;;;;;;;13.70;50.90;101321.09;4945810;28;20458;-76
2023/09/19 10:38:45;;;;;;;4.65;0.85;;;;;;;13.69;52.01;101312.44;4946951;28;20054;-74
2023/09/19 10:41:21;;;;;;;2.70;0.30;;;;;;;13.67;53.03;101308.03;4948532;28;20054;-75
2023/09/19 10:43:55;;;;;;;2.30;0.65;;;;;;;13.64;52.35;101319.22;4953194;28;20202;-74
2023/09/19 10:46:25;;;;;;;2.53;0.47;;;;;;;13.62;52.26;101310.50;4944704;28;20047;-74
2023/09/19 10:48:54;;;;;;;0.55;0.30;;;;;;;13.62;51.76;101313.97;4951811;28;20556;-73
2023/09/19 10:51:30;;;;;;;5.22;0.55;;;;;;;13.62;52.03;101320.91;4939868;28;20497;-75
2023/09/19 10:54:07;;;;;;;2.53;0.70;;;;;;;13.60;52.77;101315.66;4948501;28;20079;-74
2023/09/19 10:56:41;;;;;;;5.20;0.60;;;;;;;13.60;53.42;101315.66;4947964;28;20047;-74
2023/09/19 10:59:18;;;;;;;7.07;0.57;;;;;;;13.58;53.02;101317.38;4943466;28;20083;-74
2023/09/19 11:01:50;;;;;;;1.95;0.52;;;;;;;13.55;53.76;101303.41;4947013;28;20039;-74
2023/09/19 11:04:28;;;;;;;1.13;0.32;;;;;;;13.52;53.02;101313.72;4948717;28;20520;-74
2023/09/19 11:07:10;;;;;;;1.45;0.50;;;;;;;13.50;53.64;101303.28;4949362;28;20358;-74
2023/09/19 11:09:53;;;;;;;1.55;0.40;;;;;;;13.49;53.90;101306.72;4946698;28;20051;-75
2023/09/19 11:12:52;;;;;;;2.72;0.20;;;;;;;13.47;53.28;101311.00;4951385;28;20052;-73
2023/09/19 11:15:57;;;;;;;3.83;0.88;;;;;;;13.46;55.23;101306.63;4948800;28;20453;-75
2023/09/19 11:19:10;;;;;;;3.85;0.30;;;;;;;13.41;55.34;101298.72;4947510;28;20062;-75
2023/09/19 11:21:56;;;;;;;2.38;0.50;;;;;;;13.43;55.75;101309.16;4887550;29;20068;-75
2023/09/19 11:24:42;;;;;;;6.43;0.52;;;;;;;13.40;55.09;101311.69;4889015;29;20623;-74
2023/09/19 11:27:20;;;;;;;1.17;0.28;;;;;;;13.44;54.50;101323.91;4934431;28;20049;-75
2023/09/19 11:29:49;;;;;;;3.55;0.60;;;;;;;13.46;54.68;101323.94;4947690;28;20497;-74
2023/09/19 11:32:19;;;;;;;6.75;1.20;;;;;;;13.44;54.19;101323.91;4950582;28;20051;-76
2023/09/19 11:34:52;;;;;;;6.65;1.08;;;;;;;13.44;54.29;101323.91;4948677;28;20123;-76
2023/09/19 11:38:16;;;;;;;2.63;0.63;;;;;;;13.47;53.89;101324.00;4950304;28;20460;-76
2023/09/19 11:40:55;;;;;;;;;;;;;;;13.48;55.88;101320.53;4940993;28;20052;-76
2023/09/19 11:43:34;;;;;;;2.30;0.30;;;;;;;13.50;56.35;101312.81;4949495;28;19933;-75
2023/09/19 11:46:11;;;;;;;4.35;0.63;;;;;;;13.49;56.43;101317.13;4945703;28;20062;-77
2023/09/19 11:48:45;;;;;;;4.28;0.70;;;;;;;13.43;55.54;101300.50;4948352;28;20051;-75
2023/09/19 11:51:26;;;;;;;1.63;0.68;;;;;;;13.46;55.16;101303.16;4948872;28;20098;-73